createdAt,value
2022-08-05T00:00:46.742Z,995.28
2022-08-05T00:01:49.152Z,995.28
2022-08-05T00:02:38.938Z,995.28
2022-08-05T00:03:38.855Z,995.28
2022-08-05T00:04:37.843Z,995.28
2022-08-05T00:06:05.728Z,995.26
2022-08-05T00:06:38.778Z,995.27
2022-08-05T00:08:01.047Z,995.26
2022-08-05T00:08:38.673Z,995.28
2022-08-05T00:09:37.736Z,995.27
2022-08-05T00:10:38.813Z,995.29
2022-08-05T00:11:49.573Z,995.29
2022-08-05T00:12:56.619Z,995.30
2022-08-05T00:13:40.067Z,995.30
2022-08-05T00:14:37.638Z,995.30
2022-08-05T00:15:56.263Z,995.28
2022-08-05T00:16:52.804Z,995.26
2022-08-05T00:17:38.506Z,995.24
2022-08-05T00:18:37.882Z,995.23
2022-08-05T00:19:45.667Z,995.25
2022-08-05T00:20:38.475Z,995.26
2022-08-05T00:21:37.534Z,995.29
2022-08-05T00:22:38.318Z,995.34
2022-08-05T00:23:46.123Z,995.41
2022-08-05T00:24:38.498Z,995.49
2022-08-05T00:25:45.713Z,995.59
2022-08-05T00:26:38.525Z,995.77
2022-08-05T00:27:37.643Z,996.00
2022-08-05T00:28:38.398Z,996.28
2022-08-05T00:29:38.489Z,996.58
2022-08-05T00:30:37.351Z,996.81
2022-08-05T00:31:41.278Z,996.97
2022-08-05T00:32:39.323Z,997.06
2022-08-05T00:34:53.548Z,997.11
2022-08-05T00:34:56.995Z,997.08
2022-08-05T00:35:38.169Z,997.24
2022-08-05T00:37:11.791Z,997.21
2022-08-05T00:37:53.069Z,997.18
2022-08-05T00:38:38.212Z,997.20
2022-08-05T00:39:44.245Z,997.08
2022-08-05T00:40:38.100Z,997.05
2022-08-05T00:41:51.763Z,997.00
2022-08-05T00:42:38.172Z,996.93
2022-08-05T00:43:46.503Z,996.87
2022-08-05T00:44:38.149Z,996.84
2022-08-05T00:45:42.783Z,996.84
2022-08-05T00:46:43.506Z,996.74
2022-08-05T00:47:56.640Z,996.77
2022-08-05T00:48:51.288Z,996.85
2022-08-05T00:49:51.059Z,996.88
2022-08-05T00:50:37.994Z,996.97
2022-08-05T00:51:51.717Z,997.13
2022-08-05T00:52:39.152Z,997.22
2022-08-05T00:54:00.520Z,997.23
2022-08-05T00:54:37.859Z,997.27
2022-08-05T00:55:42.780Z,997.24
2022-08-05T00:56:37.899Z,997.19
2022-08-05T00:57:55.703Z,997.10
2022-08-05T00:58:37.806Z,997.00
2022-08-05T00:59:44.700Z,996.91
2022-08-05T01:00:37.844Z,996.86
2022-08-05T01:01:48.104Z,996.79
2022-08-05T01:02:38.955Z,996.70
2022-08-05T01:03:36.811Z,996.60
2022-08-05T01:04:36.764Z,996.47
2022-08-05T01:05:37.746Z,996.35
2022-08-05T01:06:37.206Z,996.18
2022-08-05T01:07:36.702Z,995.99
2022-08-05T01:08:42.875Z,995.76
2022-08-05T01:09:38.340Z,995.58
2022-08-05T01:10:36.626Z,995.49
2022-08-05T01:11:37.425Z,995.54
2022-08-05T01:12:36.591Z,995.64
2022-08-05T01:13:57.779Z,995.70
2022-08-05T01:14:37.502Z,995.71
2022-08-05T01:15:36.861Z,995.66
2022-08-05T01:16:36.538Z,995.59
2022-08-05T01:17:40.074Z,995.56
2022-08-05T01:18:36.599Z,995.56
2022-08-05T01:19:56.886Z,995.61
2022-08-05T01:20:37.398Z,995.65
2022-08-05T01:21:38.300Z,995.68
2022-08-05T01:22:36.411Z,995.69
2022-08-05T01:23:36.399Z,995.69
2022-08-05T01:24:36.420Z,995.71
2022-08-05T01:25:40.959Z,995.70
2022-08-05T01:26:37.391Z,995.69
2022-08-05T01:27:36.373Z,995.62
2022-08-05T01:28:37.325Z,995.56
2022-08-05T01:29:37.386Z,995.49
2022-08-05T01:30:36.286Z,995.42
2022-08-05T01:31:42.705Z,995.34
2022-08-05T01:32:37.241Z,995.24
2022-08-05T01:33:36.237Z,995.18
2022-08-05T01:34:36.202Z,995.22
2022-08-05T01:35:50.864Z,995.26
2022-08-05T01:36:37.176Z,995.25
2022-08-05T01:37:37.533Z,995.20
2022-08-05T01:38:37.182Z,995.17
2022-08-05T01:39:46.251Z,995.10
2022-08-05T01:40:37.118Z,994.96
2022-08-05T01:41:36.231Z,994.88
2022-08-05T01:42:36.073Z,994.79
2022-08-05T01:43:36.060Z,994.71
2022-08-05T01:44:36.031Z,994.74
2022-08-05T01:45:43.071Z,994.75
2022-08-05T01:46:42.352Z,994.75
2022-08-05T01:47:39.307Z,994.72
2022-08-05T01:48:35.978Z,994.67
2022-08-05T01:50:00.454Z,994.67
2022-08-05T01:50:36.899Z,994.75
2022-08-05T01:51:35.896Z,994.88
2022-08-05T01:52:35.893Z,994.94
2022-08-05T01:53:55.075Z,994.97
2022-08-05T01:54:46.339Z,994.98
2022-08-05T01:55:36.857Z,995.00
2022-08-05T01:58:10.036Z,994.96
2022-08-05T01:58:29.306Z,994.92
2022-08-05T01:58:44.651Z,994.87
2022-08-05T01:59:37.349Z,994.84
2022-08-05T02:00:35.755Z,994.84
2022-08-05T02:01:40.374Z,994.83
2022-08-05T02:02:36.330Z,994.83
2022-08-05T02:03:36.705Z,994.88
2022-08-05T02:04:36.421Z,994.90
2022-08-05T02:05:36.519Z,994.91
2022-08-05T02:06:38.334Z,994.92
2022-08-05T02:07:35.626Z,994.94
2022-08-05T02:08:40.823Z,994.99
2022-08-05T02:09:36.518Z,995.06
2022-08-05T02:10:35.588Z,995.12
2022-08-05T02:11:36.349Z,995.18
2022-08-05T02:12:36.569Z,995.23
2022-08-05T02:13:48.664Z,995.25
2022-08-05T02:14:36.560Z,995.24
2022-08-05T02:15:35.478Z,995.23
2022-08-05T02:16:35.469Z,995.22
2022-08-05T02:18:33.135Z,995.18
2022-08-05T02:18:36.685Z,995.11
2022-08-05T02:19:36.421Z,995.03
2022-08-05T02:20:38.906Z,994.99
2022-08-05T02:21:40.266Z,994.98
2022-08-05T02:22:36.400Z,994.99
2022-08-05T02:23:35.751Z,994.99
2022-08-05T02:24:35.372Z,994.94
2022-08-05T02:25:35.961Z,994.86
2022-08-05T02:26:36.876Z,994.78
2022-08-05T02:27:59.442Z,994.73
2022-08-05T02:28:41.515Z,994.73
2022-08-05T02:29:59.798Z,994.73
2022-08-05T02:30:36.154Z,994.75
2022-08-05T02:31:35.266Z,994.77
2022-08-05T02:32:35.170Z,994.78
2022-08-05T02:33:35.996Z,994.73
2022-08-05T02:34:35.149Z,994.65
2022-08-05T02:35:38.142Z,994.55
2022-08-05T02:36:36.117Z,994.44
2022-08-05T02:37:35.098Z,994.34
2022-08-05T02:38:36.106Z,994.29
2022-08-05T02:39:35.889Z,994.23
2022-08-05T02:40:36.030Z,994.21
2022-08-05T02:41:43.071Z,994.19
2022-08-05T02:42:36.295Z,994.18
2022-08-05T02:43:34.897Z,994.23
2022-08-05T02:44:35.941Z,994.31
2022-08-05T02:45:52.149Z,994.33
2022-08-05T02:46:35.916Z,994.27
2022-08-05T02:47:58.507Z,994.17
2022-08-05T02:48:35.847Z,994.08
2022-08-05T02:49:36.515Z,994.00
2022-08-05T02:50:34.901Z,993.91
2022-08-05T02:52:03.582Z,993.81
2022-08-05T02:52:35.760Z,993.73
2022-08-05T02:53:35.991Z,993.66
2022-08-05T02:54:37.152Z,993.58
2022-08-05T02:55:54.856Z,993.49
2022-08-05T02:56:35.702Z,993.42
2022-08-05T02:58:11.822Z,993.35
2022-08-05T02:58:35.666Z,993.32
2022-08-05T02:59:50.169Z,993.30
2022-08-05T03:00:35.716Z,993.38
2022-08-05T03:01:34.739Z,993.52
2022-08-05T03:02:34.667Z,993.74
2022-08-05T03:04:02.194Z,993.94
2022-08-05T03:04:35.547Z,994.11
2022-08-05T03:06:53.575Z,994.25
2022-08-05T03:06:57.088Z,994.21
2022-08-05T03:08:00.810Z,994.28
2022-08-05T03:08:35.476Z,994.34
2022-08-05T03:09:38.181Z,994.48
2022-08-05T03:10:35.536Z,994.68
2022-08-05T03:11:57.887Z,994.84
2022-08-05T03:12:35.420Z,995.07
2022-08-05T03:13:51.631Z,995.25
2022-08-05T03:14:35.376Z,995.42
2022-08-05T03:15:35.697Z,995.56
2022-08-05T03:16:35.647Z,995.67
2022-08-05T03:17:41.764Z,995.80
2022-08-05T03:18:35.389Z,995.91
2022-08-05T03:19:36.176Z,995.98
2022-08-05T03:20:34.330Z,996.04
2022-08-05T03:21:41.600Z,996.11
2022-08-05T03:22:35.298Z,996.18
2022-08-05T03:23:34.318Z,996.24
2022-08-05T03:24:34.331Z,996.25
2022-08-05T03:26:04.497Z,996.24
2022-08-05T03:26:35.190Z,996.18
2022-08-05T03:27:57.603Z,996.07
2022-08-05T03:28:35.111Z,995.97
2022-08-05T03:29:45.880Z,995.92
2022-08-05T03:30:35.067Z,995.84
2022-08-05T03:31:56.932Z,995.76
2022-08-05T03:32:35.899Z,995.72
2022-08-05T03:33:51.068Z,995.75
2022-08-05T03:34:35.099Z,995.84
2022-08-05T03:35:34.157Z,995.94
2022-08-05T03:36:35.070Z,996.02
2022-08-05T03:37:41.727Z,996.05
2022-08-05T03:38:37.538Z,996.10
2022-08-05T03:39:47.127Z,996.19
2022-08-05T03:40:35.820Z,996.29
2022-08-05T03:41:38.628Z,996.38
2022-08-05T03:42:41.806Z,996.40
2022-08-05T03:44:08.756Z,996.39
2022-08-05T03:44:34.810Z,996.38
2022-08-05T03:45:57.546Z,996.33
2022-08-05T03:46:34.805Z,996.28
2022-08-05T03:47:35.372Z,996.25
2022-08-05T03:48:36.760Z,996.25
2022-08-05T03:49:51.566Z,996.27
2022-08-05T03:50:34.797Z,996.25
2022-08-05T03:52:37.149Z,996.23
2022-08-05T03:54:53.697Z,996.21
2022-08-05T03:55:00.220Z,996.19
2022-08-05T03:55:49.808Z,996.16
2022-08-05T03:55:53.364Z,996.12
2022-08-05T03:56:35.030Z,996.08
2022-08-05T03:57:42.349Z,996.06
2022-08-05T03:58:34.711Z,996.09
2022-08-05T03:59:47.521Z,996.11
2022-08-05T04:00:34.646Z,996.11
2022-08-05T04:01:33.636Z,996.08
2022-08-05T04:02:38.344Z,996.03
2022-08-05T04:03:34.658Z,996.03
2022-08-05T04:04:33.492Z,996.04
2022-08-05T04:05:34.463Z,996.09
2022-08-05T04:06:33.474Z,996.19
2022-08-05T04:07:33.448Z,996.33
2022-08-05T04:08:36.121Z,996.43
2022-08-05T04:09:36.632Z,996.46
2022-08-05T04:10:37.559Z,996.45
2022-08-05T04:11:47.226Z,996.46
2022-08-05T04:13:20.328Z,996.53
2022-08-05T04:14:30.437Z,996.56
2022-08-05T04:15:21.285Z,996.57
2022-08-05T04:16:25.187Z,996.59
2022-08-05T04:17:21.336Z,996.59
2022-08-05T04:18:22.638Z,996.59
2022-08-05T04:19:21.265Z,996.57
2022-08-05T04:20:20.327Z,996.57
2022-08-05T04:22:09.131Z,996.55
2022-08-05T04:22:21.415Z,996.55
2022-08-05T04:23:20.146Z,996.55
2022-08-05T04:24:22.439Z,996.54
2022-08-05T04:25:20.104Z,996.51
2022-08-05T04:26:21.205Z,996.46
2022-08-05T04:27:33.185Z,996.37
2022-08-05T04:28:21.202Z,996.34
2022-08-05T04:29:21.072Z,996.28
2022-08-05T04:30:20.141Z,996.24
2022-08-05T04:31:20.025Z,996.25
2022-08-05T04:32:31.014Z,996.26
2022-08-05T04:34:17.302Z,996.24
2022-08-05T04:34:33.351Z,996.24
2022-08-05T04:35:21.040Z,996.27
2022-08-05T04:36:44.723Z,996.35
2022-08-05T04:37:21.026Z,996.41
2022-08-05T04:38:21.100Z,996.45
2022-08-05T04:39:21.072Z,996.47
2022-08-05T04:40:19.970Z,996.46
2022-08-05T04:41:19.948Z,996.42
2022-08-05T04:42:20.920Z,996.39
2022-08-05T04:43:21.943Z,996.34
2022-08-05T04:44:28.968Z,996.29
2022-08-05T04:45:23.025Z,996.22
2022-08-05T04:46:27.753Z,996.15
2022-08-05T04:47:20.831Z,996.16
2022-08-05T04:48:27.407Z,996.25
2022-08-05T04:49:24.597Z,996.37
2022-08-05T04:50:37.368Z,996.46
2022-08-05T04:51:20.659Z,996.50
2022-08-05T04:52:19.725Z,996.48
2022-08-05T04:53:19.865Z,996.39
2022-08-05T04:54:19.703Z,996.31
2022-08-05T04:55:22.347Z,996.24
2022-08-05T04:56:35.117Z,996.25
2022-08-05T04:57:20.566Z,996.33
2022-08-05T04:58:20.146Z,996.44
2022-08-05T04:59:23.983Z,996.53
2022-08-05T05:00:23.319Z,996.56
2022-08-05T05:02:07.899Z,996.60
2022-08-05T05:02:36.408Z,996.65
2022-08-05T05:03:20.535Z,996.74
2022-08-05T05:04:19.551Z,996.80
2022-08-05T05:05:28.236Z,996.87
2022-08-05T05:06:38.666Z,996.90
2022-08-05T05:07:23.989Z,996.90
2022-08-05T05:08:26.569Z,996.88
2022-08-05T05:09:20.430Z,996.87
2022-08-05T05:10:19.416Z,996.87
2022-08-05T05:11:19.528Z,996.86
2022-08-05T05:12:19.414Z,996.80
2022-08-05T05:13:19.358Z,996.76
2022-08-05T05:14:49.146Z,996.74
2022-08-05T05:15:54.367Z,996.76
2022-08-05T05:16:20.338Z,996.78
2022-08-05T05:17:23.915Z,996.77
2022-08-05T05:18:31.264Z,996.75
2022-08-05T05:19:23.576Z,996.72
2022-08-05T05:20:20.475Z,996.68
2022-08-05T05:21:19.446Z,996.60
2022-08-05T05:22:23.445Z,996.56
2022-08-05T05:23:20.278Z,996.51
2022-08-05T05:24:20.057Z,996.43
2022-08-05T05:25:19.158Z,996.34
2022-08-05T05:26:19.176Z,996.24
2022-08-05T05:27:19.146Z,996.18
2022-08-05T05:28:19.116Z,996.16
2022-08-05T05:29:19.132Z,996.18
2022-08-05T05:30:31.291Z,996.21
2022-08-05T05:31:20.087Z,996.24
2022-08-05T05:32:19.104Z,996.27
2022-08-05T05:33:23.265Z,996.30
2022-08-05T05:34:23.988Z,996.32
2022-08-05T05:35:20.122Z,996.35
2022-08-05T05:36:18.985Z,996.39
2022-08-05T05:37:20.001Z,996.46
2022-08-05T05:38:22.786Z,996.50
2022-08-05T05:39:19.969Z,996.53
2022-08-05T05:40:19.812Z,996.59
2022-08-05T05:41:18.888Z,996.68
2022-08-05T05:42:18.863Z,996.77
2022-08-05T05:43:27.516Z,996.89
2022-08-05T05:44:36.755Z,996.96
2022-08-05T05:45:20.515Z,996.97
2022-08-05T05:46:18.903Z,996.94
2022-08-05T05:47:21.477Z,996.92
2022-08-05T05:48:18.803Z,996.86
2022-08-05T05:49:22.353Z,996.83
2022-08-05T05:50:19.640Z,996.86
2022-08-05T05:51:18.689Z,996.90
2022-08-05T05:52:28.356Z,996.91
2022-08-05T05:53:22.559Z,996.82
2022-08-05T05:54:19.672Z,996.61
2022-08-05T05:55:18.595Z,996.39
2022-08-05T05:56:25.794Z,996.27
2022-08-05T05:57:19.684Z,996.30
2022-08-05T05:58:19.089Z,996.29
2022-08-05T05:59:18.599Z,996.21
2022-08-05T06:00:19.013Z,996.16
2022-08-05T06:01:18.484Z,996.12
2022-08-05T06:02:32.422Z,996.12
2022-08-05T06:03:39.785Z,996.13
2022-08-05T06:04:19.552Z,996.12
2022-08-05T06:05:18.489Z,996.12
2022-08-05T06:06:18.410Z,996.11
2022-08-05T06:07:22.470Z,996.10
2022-08-05T06:08:31.478Z,996.02
2022-08-05T06:09:25.911Z,995.92
2022-08-05T06:10:19.352Z,995.91
2022-08-05T06:11:18.314Z,995.91
2022-08-05T06:12:18.310Z,995.90
2022-08-05T06:13:19.081Z,995.91
2022-08-05T06:14:18.259Z,995.95
2022-08-05T06:15:24.145Z,996.02
2022-08-05T06:16:31.796Z,996.03
2022-08-05T06:17:22.446Z,996.03
2022-08-05T06:18:19.196Z,996.08
2022-08-05T06:19:33.996Z,996.13
2022-08-05T06:20:21.549Z,996.15
2022-08-05T06:21:18.489Z,996.08
2022-08-05T06:22:18.160Z,996.01
2022-08-05T06:23:18.106Z,996.01
2022-08-05T06:24:19.099Z,996.01
2022-08-05T06:25:25.165Z,996.02
2022-08-05T06:26:24.115Z,996.02
2022-08-05T06:28:09.166Z,996.00
2022-08-05T06:28:21.708Z,995.94
2022-08-05T06:29:25.041Z,995.86
2022-08-05T06:30:21.267Z,995.79
2022-08-05T06:31:22.257Z,995.77
2022-08-05T06:32:26.301Z,995.77
2022-08-05T06:33:19.088Z,995.77
2022-08-05T06:34:19.931Z,995.74
2022-08-05T06:36:04.074Z,995.72
2022-08-05T06:36:18.852Z,995.64
2022-08-05T06:37:57.019Z,995.60
2022-08-05T06:38:18.757Z,995.69
2022-08-05T06:39:18.853Z,995.76
2022-08-05T06:40:18.521Z,995.78
2022-08-05T06:41:17.829Z,995.74
2022-08-05T06:42:17.812Z,995.72
2022-08-05T06:43:59.786Z,995.79
2022-08-05T06:44:18.736Z,995.95
2022-08-05T06:45:20.842Z,996.10
2022-08-05T06:46:17.683Z,996.22
2022-08-05T06:47:30.058Z,996.28
2022-08-05T06:48:52.816Z,996.34
2022-08-05T06:49:18.893Z,996.45
2022-08-05T06:50:18.019Z,996.60
2022-08-05T06:51:23.856Z,996.71
2022-08-05T06:52:37.806Z,996.77
2022-08-05T06:53:22.662Z,996.78
2022-08-05T06:54:19.228Z,996.74
2022-08-05T06:55:18.556Z,996.68
2022-08-05T06:56:26.463Z,996.62
2022-08-05T06:58:03.132Z,996.53
2022-08-05T06:58:20.367Z,996.51
2022-08-05T06:59:18.511Z,996.51
2022-08-05T07:00:24.772Z,996.47
2022-08-05T07:01:21.016Z,996.37
2022-08-05T07:02:17.421Z,996.28
2022-08-05T07:03:18.434Z,996.21
2022-08-05T07:04:19.139Z,996.13
2022-08-05T07:05:18.956Z,996.12
2022-08-05T07:06:17.379Z,996.19
2022-08-05T07:07:24.065Z,996.20
2022-08-05T07:08:18.401Z,996.22
2022-08-05T07:09:17.269Z,996.25
2022-08-05T07:10:17.477Z,996.33
2022-08-05T07:11:17.269Z,996.39
2022-08-05T07:12:18.201Z,996.38
2022-08-05T07:13:17.221Z,996.32
2022-08-05T07:14:28.934Z,996.21
2022-08-05T07:15:34.620Z,996.14
2022-08-05T07:17:57.223Z,996.09
2022-08-05T07:18:00.822Z,996.07
2022-08-05T07:18:29.168Z,996.05
2022-08-05T07:19:44.325Z,996.02
2022-08-05T07:20:37.056Z,995.99
2022-08-05T07:21:18.039Z,995.99
2022-08-05T07:22:18.037Z,996.01
2022-08-05T07:23:26.479Z,996.05
2022-08-05T07:24:18.066Z,996.10
2022-08-05T07:25:22.995Z,996.17
2022-08-05T07:26:22.564Z,996.23
2022-08-05T07:27:17.074Z,996.27
2022-08-05T07:28:17.229Z,996.28
2022-08-05T07:29:16.965Z,996.28
2022-08-05T07:30:27.125Z,996.32
2022-08-05T07:31:18.287Z,996.38
2022-08-05T07:32:17.893Z,996.43
2022-08-05T07:33:18.625Z,996.50
2022-08-05T07:34:21.470Z,996.58
2022-08-05T07:36:01.815Z,996.70
2022-08-05T07:36:19.929Z,996.82
2022-08-05T07:37:16.790Z,996.91
2022-08-05T07:38:26.310Z,997.00
2022-08-05T07:39:50.404Z,997.10
2022-08-05T07:40:31.454Z,997.20
2022-08-05T07:42:13.011Z,997.21
2022-08-05T07:42:19.114Z,997.16
2022-08-05T07:43:20.860Z,997.06
2022-08-05T07:44:19.197Z,997.02
2022-08-05T07:45:16.673Z,996.98
2022-08-05T07:46:24.749Z,996.94
2022-08-05T07:47:18.164Z,996.93
2022-08-05T07:48:16.588Z,996.95
2022-08-05T07:49:18.220Z,996.92
2022-08-05T07:50:16.883Z,996.86
2022-08-05T07:51:23.695Z,996.78
2022-08-05T07:52:17.508Z,996.71
2022-08-05T07:53:16.477Z,996.73
2022-08-05T07:54:16.533Z,996.78
2022-08-05T07:55:44.360Z,996.83
2022-08-05T07:56:39.359Z,996.90
2022-08-05T07:57:41.678Z,996.97
2022-08-05T07:58:54.786Z,997.03
2022-08-05T07:59:17.307Z,997.06
2022-08-05T08:00:17.379Z,997.07
2022-08-05T08:01:16.394Z,997.11
2022-08-05T08:02:18.097Z,997.15
2022-08-05T08:03:16.332Z,997.17
2022-08-05T08:04:17.127Z,997.13
2022-08-05T08:05:17.459Z,997.12
2022-08-05T08:06:16.320Z,997.15
2022-08-05T08:07:16.255Z,997.21
2022-08-05T08:08:16.207Z,997.26
2022-08-05T08:09:16.256Z,997.27
2022-08-05T08:10:16.209Z,997.28
2022-08-05T08:11:16.277Z,997.25
2022-08-05T08:12:35.182Z,997.25
2022-08-05T08:13:22.121Z,997.23
2022-08-05T08:14:18.347Z,997.24
2022-08-05T08:15:16.255Z,997.23
2022-08-05T08:16:35.215Z,997.23
2022-08-05T08:17:17.064Z,997.22
2022-08-05T08:18:23.907Z,997.23
2022-08-05T08:20:00.598Z,997.23
2022-08-05T08:20:43.943Z,997.22
2022-08-05T08:21:17.690Z,997.22
2022-08-05T08:22:16.628Z,997.23
2022-08-05T08:24:01.541Z,997.22
2022-08-05T08:24:16.943Z,997.19
2022-08-05T08:25:17.823Z,997.19
2022-08-05T08:26:16.946Z,997.21
2022-08-05T08:27:16.929Z,997.21
2022-08-05T08:28:18.050Z,997.22
2022-08-05T08:30:03.236Z,997.26
2022-08-05T08:30:29.936Z,997.27
2022-08-05T08:31:17.596Z,997.27
2022-08-05T08:32:18.545Z,997.27
2022-08-05T08:33:16.789Z,997.31
2022-08-05T08:34:15.770Z,997.30
2022-08-05T08:35:15.749Z,997.30
2022-08-05T08:36:39.187Z,997.26
2022-08-05T08:37:18.802Z,997.24
2022-08-05T08:38:16.395Z,997.22
2022-08-05T08:39:16.417Z,997.21
2022-08-05T08:40:15.641Z,997.24
2022-08-05T08:41:16.086Z,997.27
2022-08-05T08:42:34.216Z,997.30
2022-08-05T08:45:20.945Z,997.31
2022-08-05T08:45:21.092Z,997.31
2022-08-05T08:45:26.584Z,997.36
2022-08-05T08:46:16.532Z,997.35
2022-08-05T08:47:47.779Z,997.35
2022-08-05T08:48:41.371Z,997.31
2022-08-05T08:50:12.985Z,997.31
2022-08-05T08:50:31.645Z,997.32
2022-08-05T08:51:30.638Z,997.28
2022-08-05T08:52:16.442Z,997.28
2022-08-05T08:53:15.482Z,997.31
2022-08-05T08:54:16.152Z,997.28
2022-08-05T08:55:19.575Z,997.28
2022-08-05T08:56:16.262Z,997.28
2022-08-05T08:57:15.221Z,997.24
2022-08-05T08:58:15.376Z,997.25
2022-08-05T08:59:19.683Z,997.26
2022-08-05T09:00:19.403Z,997.28
2022-08-05T09:01:17.144Z,997.29
2022-08-05T09:02:16.530Z,997.28
2022-08-05T09:03:16.027Z,997.27
2022-08-05T09:04:15.268Z,997.25
2022-08-05T09:05:17.369Z,997.25
2022-08-05T09:06:19.994Z,997.26
2022-08-05T09:07:19.623Z,997.27
2022-08-05T09:08:16.159Z,997.29
2022-08-05T09:09:15.025Z,997.30
2022-08-05T09:10:22.653Z,997.32
2022-08-05T09:11:15.969Z,997.28
2022-08-05T09:12:20.235Z,997.33
2022-08-05T09:13:15.981Z,997.35
2022-08-05T09:14:58.822Z,997.31
2022-08-05T09:15:15.918Z,997.38
2022-08-05T09:16:16.925Z,997.32
2022-08-05T09:17:39.970Z,997.28
2022-08-05T09:18:15.973Z,997.34
2022-08-05T09:19:14.973Z,997.26
2022-08-05T09:20:36.365Z,997.32
2022-08-05T09:21:21.177Z,997.29
2022-08-05T09:22:21.940Z,997.27
2022-08-05T09:23:19.792Z,997.29
2022-08-05T09:24:15.853Z,997.26
2022-08-05T09:25:23.944Z,997.26
2022-08-05T09:26:20.729Z,997.31
2022-08-05T09:27:18.741Z,997.27
2022-08-05T09:28:15.745Z,997.29
2022-08-05T09:29:16.246Z,997.29
2022-08-05T09:30:16.333Z,997.22
2022-08-05T09:31:22.199Z,997.23
2022-08-05T09:32:41.417Z,997.25
2022-08-05T09:33:17.128Z,997.18
2022-08-05T09:34:14.711Z,997.17
2022-08-05T09:35:26.693Z,997.20
2022-08-05T09:36:16.352Z,997.16
2022-08-05T09:37:15.279Z,997.14
2022-08-05T09:38:18.357Z,997.13
2022-08-05T09:39:18.358Z,997.10
2022-08-05T09:40:16.294Z,997.03
2022-08-05T09:41:16.117Z,997.02
2022-08-05T09:42:23.696Z,997.00
2022-08-05T09:43:15.400Z,996.98
2022-08-05T09:44:14.542Z,996.97
2022-08-05T09:46:04.994Z,996.94
2022-08-05T09:46:15.604Z,996.94
2022-08-05T09:47:15.527Z,996.94
2022-08-05T09:48:14.465Z,996.92
2022-08-05T09:49:19.079Z,996.95
2022-08-05T09:50:18.037Z,996.99
2022-08-05T09:51:15.903Z,997.01
2022-08-05T09:52:14.478Z,996.99
2022-08-05T09:53:25.638Z,996.97
2022-08-05T09:54:15.381Z,996.96
2022-08-05T09:55:56.620Z,996.94
2022-08-05T09:56:21.841Z,996.91
2022-08-05T09:57:23.185Z,996.93
2022-08-05T09:58:15.292Z,996.93
2022-08-05T09:59:17.304Z,996.94
2022-08-05T10:00:14.368Z,996.94
2022-08-05T10:01:22.338Z,996.92
2022-08-05T10:02:15.321Z,996.92
2022-08-05T10:03:15.201Z,996.92
2022-08-05T10:04:15.903Z,996.90
2022-08-05T10:05:14.162Z,996.91
2022-08-05T10:06:15.493Z,996.94
2022-08-05T10:07:19.989Z,996.92
2022-08-05T10:08:37.706Z,996.94
2022-08-05T10:09:25.157Z,996.93
2022-08-05T10:10:15.836Z,996.91
2022-08-05T10:11:14.010Z,996.94
2022-08-05T10:12:30.436Z,996.96
2022-08-05T10:13:15.062Z,996.98
2022-08-05T10:14:14.016Z,997.05
2022-08-05T10:15:16.929Z,997.06
2022-08-05T10:16:18.080Z,997.05
2022-08-05T10:17:14.103Z,997.02
2022-08-05T10:18:18.747Z,997.03
2022-08-05T10:19:13.931Z,997.05
2022-08-05T10:20:13.941Z,997.06
2022-08-05T10:21:16.261Z,997.07
2022-08-05T10:22:29.464Z,997.02
2022-08-05T10:23:34.104Z,996.99
2022-08-05T10:24:15.122Z,996.95
2022-08-05T10:25:14.332Z,996.96
2022-08-05T10:26:15.092Z,996.94
2022-08-05T10:27:13.796Z,996.94
2022-08-05T10:28:19.246Z,996.91
2022-08-05T10:29:16.374Z,996.86
2022-08-05T10:31:19.989Z,996.84
2022-08-05T10:32:50.685Z,996.80
2022-08-05T10:32:51.484Z,996.81
2022-08-05T10:33:15.312Z,996.82
2022-08-05T10:34:13.733Z,996.84
2022-08-05T10:35:13.641Z,996.83
2022-08-05T10:36:13.589Z,996.82
2022-08-05T10:37:13.651Z,996.82
2022-08-05T10:38:13.575Z,996.83
2022-08-05T10:39:24.502Z,996.84
2022-08-05T10:40:18.236Z,996.88
2022-08-05T10:41:13.918Z,996.90
2022-08-05T10:42:14.235Z,996.94
2022-08-05T10:43:13.688Z,996.96
2022-08-05T10:44:13.483Z,996.98
2022-08-05T10:45:23.879Z,997.00
2022-08-05T10:46:14.461Z,997.03
2022-08-05T10:47:26.614Z,997.05
2022-08-05T10:48:29.621Z,997.12
2022-08-05T10:49:16.444Z,997.12
2022-08-05T10:50:32.424Z,997.15
2022-08-05T10:51:22.224Z,997.15
2022-08-05T10:52:15.129Z,997.17
2022-08-05T10:53:13.296Z,997.18
2022-08-05T10:54:28.291Z,997.15
2022-08-05T10:55:16.119Z,997.14
2022-08-05T10:56:21.078Z,997.14
2022-08-05T10:57:14.296Z,997.14
2022-08-05T10:58:15.564Z,997.17
2022-08-05T11:00:03.769Z,997.13
2022-08-05T11:00:19.146Z,997.18
2022-08-05T11:01:15.046Z,997.20
2022-08-05T11:02:32.950Z,997.20
2022-08-05T11:03:23.762Z,997.21
2022-08-05T11:04:14.104Z,997.22
2022-08-05T11:05:13.577Z,997.22
2022-08-05T11:06:15.579Z,997.27
2022-08-05T11:07:13.027Z,997.26
2022-08-05T11:08:27.686Z,997.25
2022-08-05T11:09:16.577Z,997.22
2022-08-05T11:10:13.085Z,997.23
2022-08-05T11:11:16.757Z,997.28
2022-08-05T11:12:13.022Z,997.34
2022-08-05T11:13:12.947Z,997.41
2022-08-05T11:14:12.944Z,997.46
2022-08-05T11:15:19.933Z,997.51
2022-08-05T11:16:13.944Z,997.52
2022-08-05T11:18:00.118Z,997.58
2022-08-05T11:18:14.074Z,997.55
2022-08-05T11:20:17.644Z,997.58
2022-08-05T11:20:18.288Z,997.60
2022-08-05T11:21:13.842Z,997.64
2022-08-05T11:22:12.750Z,997.66
2022-08-05T11:23:13.778Z,997.67
2022-08-05T11:24:14.780Z,997.63
2022-08-05T11:25:16.816Z,997.67
2022-08-05T11:26:13.738Z,997.65
2022-08-05T11:27:12.729Z,997.69
2022-08-05T11:28:16.979Z,997.71
2022-08-05T11:29:14.351Z,997.76
2022-08-05T11:30:12.635Z,997.74
2022-08-05T11:31:19.615Z,997.74
2022-08-05T11:32:13.649Z,997.75
2022-08-05T11:33:21.054Z,997.78
2022-08-05T11:34:14.649Z,997.80
2022-08-05T11:35:15.548Z,997.81
2022-08-05T11:36:12.541Z,997.85
2022-08-05T11:38:28.478Z,997.84
2022-08-05T11:38:29.050Z,997.83
2022-08-05T11:39:13.525Z,997.85
2022-08-05T11:40:12.507Z,997.86
2022-08-05T11:41:56.235Z,997.87
2022-08-05T11:42:18.363Z,997.84
2022-08-05T11:43:13.425Z,997.83
2022-08-05T11:44:12.353Z,997.83
2022-08-05T11:46:14.947Z,997.86
2022-08-05T11:46:15.045Z,997.88
2022-08-05T11:47:15.255Z,997.93
2022-08-05T11:48:13.365Z,997.96
2022-08-05T11:49:12.305Z,998.02
2022-08-05T11:50:14.308Z,998.05
2022-08-05T11:51:12.262Z,998.06
2022-08-05T11:52:13.149Z,998.09
2022-08-05T11:53:12.278Z,998.08
2022-08-05T11:54:12.191Z,998.10
2022-08-05T11:55:12.622Z,998.14
2022-08-05T11:56:12.172Z,998.17
2022-08-05T11:57:24.841Z,998.19
2022-08-05T11:58:13.208Z,998.20
2022-08-05T11:59:13.749Z,998.21
2022-08-05T12:00:12.075Z,998.24
2022-08-05T12:01:12.057Z,998.26
2022-08-05T12:02:23.972Z,998.26
2022-08-05T12:03:13.096Z,998.26
2022-08-05T12:04:11.949Z,998.25
2022-08-05T12:05:18.317Z,998.27
2022-08-05T12:06:12.956Z,998.25
2022-08-05T12:07:11.945Z,998.25
2022-08-05T12:08:18.038Z,998.24
2022-08-05T12:09:20.104Z,998.24
2022-08-05T12:10:12.990Z,998.24
2022-08-05T12:11:11.878Z,998.25
2022-08-05T12:12:12.889Z,998.23
2022-08-05T12:13:16.310Z,998.23
2022-08-05T12:14:13.029Z,998.21
2022-08-05T12:15:16.461Z,998.21
2022-08-05T12:16:14.567Z,998.21
2022-08-05T12:18:02.737Z,998.18
2022-08-05T12:18:12.763Z,998.16
2022-08-05T12:20:25.798Z,998.14
2022-08-05T12:20:26.435Z,998.14
2022-08-05T12:21:12.671Z,998.13
2022-08-05T12:22:11.670Z,998.12
2022-08-05T12:23:11.594Z,998.10
2022-08-05T12:24:11.642Z,998.11
2022-08-05T12:25:14.253Z,998.14
2022-08-05T12:26:11.584Z,998.14
2022-08-05T12:27:21.662Z,998.13
2022-08-05T12:28:15.030Z,998.14
2022-08-05T12:29:15.925Z,998.12